Time;durP1;ratioP1;P1;durP2;ratioP2;P2;SDS_P1;SDS_P2;PMS_P1;PMS_P2;Temp;Humidity;BMP_temperature;BMP_pressure;BME280_temperature;BME280_humidity;BME280_pressure;Samples;Min_cycle;Max_cycle;Signal;HPM_P1;HPM_P2
2021/03/08 00:00:55;;;;;;;8.93;8.10;;;7.60;41.60;;;;;;5063870;28;20662;-52
2021/03/08 00:03:23;;;;;;;9.43;8.23;;;7.50;41.70;;;;;;5066835;28;20712;-51
2021/03/08 00:05:50;;;;;;;9.23;8.33;;;7.50;41.90;;;;;;5051828;28;20995;-51
2021/03/08 00:08:17;;;;;;;10.20;8.00;;;7.50;41.90;;;;;;5051270;28;21190;-52
2021/03/08 00:10:44;;;;;;;7.87;7.27;;;7.50;41.90;;;;;;5065010;28;20656;-52
2021/03/08 00:13:11;;;;;;;8.47;7.67;;;7.50;42.30;;;;;;5067916;28;20657;-52
2021/03/08 00:15:37;;;;;;;9.63;8.40;;;7.50;42.00;;;;;;5049884;28;21097;-52
2021/03/08 00:18:04;;;;;;;9.23;8.43;;;7.40;41.90;;;;;;5063567;28;21066;-53
2021/03/08 00:20:32;;;;;;;8.20;7.40;;;7.40;42.00;;;;;;5054122;28;20680;-53
2021/03/08 00:22:59;;;;;;;8.07;7.27;;;7.30;41.90;;;;;;5052272;28;20634;-53
2021/03/08 00:25:27;;;;;;;9.37;8.47;;;7.30;42.10;;;;;;5070037;28;20690;-53
2021/03/08 00:27:54;;;;;;;8.30;7.50;;;7.30;42.10;;;;;;5067838;28;20675;-53
2021/03/08 00:30:21;;;;;;;9.97;8.80;;;7.20;42.10;;;;;;5069107;28;20629;-53
2021/03/08 00:32:48;;;;;;;9.57;7.60;;;7.20;42.20;;;;;;5066891;28;21183;-53
2021/03/08 00:35:15;;;;;;;8.70;7.93;;;7.20;42.30;;;;;;5057374;28;20631;-53
2021/03/08 00:37:43;;;;;;;9.57;7.90;;;7.20;42.40;;;;;;5068910;28;20814;-53
2021/03/08 00:40:12;;;;;;;9.57;8.27;;;7.20;42.60;;;;;;5050568;28;20622;-52
2021/03/08 00:42:38;;;;;;;12.27;7.70;;;7.20;42.50;;;;;;5049393;28;20688;-53
2021/03/08 00:45:06;;;;;;;7.93;7.17;;;7.20;42.70;;;;;;5069286;28;20771;-53
2021/03/08 00:47:33;;;;;;;7.63;6.80;;;7.20;42.70;;;;;;5061737;28;20622;-53
2021/03/08 00:50:00;;;;;;;8.50;7.43;;;7.10;42.60;;;;;;5049618;28;20670;-53
2021/03/08 00:52:27;;;;;;;8.53;7.67;;;7.10;42.70;;;;;;5048638;28;20658;-53
2021/03/08 00:54:54;;;;;;;8.90;8.10;;;7.10;42.60;;;;;;5048620;28;20738;-53
2021/03/08 00:57:21;;;;;;;8.77;7.90;;;7.10;42.60;;;;;;5048841;28;20646;-53
2021/03/08 00:59:48;;;;;;;9.03;8.17;;;7.10;42.70;;;;;;5048214;28;20633;-53
2021/03/08 01:02:14;;;;;;;8.77;7.97;;;7.00;42.80;;;;;;5058761;28;20682;-53
2021/03/08 01:04:41;;;;;;;9.10;6.93;;;7.00;42.80;;;;;;5067882;28;20661;-53
2021/03/08 01:07:08;;;;;;;10.73;7.50;;;7.00;42.70;;;;;;5068841;28;21177;-52
2021/03/08 01:09:35;;;;;;;8.60;7.70;;;7.00;42.70;;;;;;5063287;28;20667;-54
2021/03/08 01:12:03;;;;;;;8.00;7.30;;;7.00;42.90;;;;;;5049503;28;20634;-53
2021/03/08 01:14:30;;;;;;;7.90;7.20;;;7.00;42.80;;;;;;5068221;28;20734;-53
2021/03/08 01:16:57;;;;;;;9.70;8.87;;;6.90;42.70;;;;;;5051466;28;21028;-53
2021/03/08 01:19:23;;;;;;;9.10;8.40;;;6.90;42.90;;;;;;5048401;28;20695;-53
2021/03/08 01:21:50;;;;;;;8.27;7.47;;;6.80;42.70;;;;;;5064219;28;20675;-53
2021/03/08 01:24:17;;;;;;;8.70;7.90;;;6.80;42.70;;;;;;5062048;28;20719;-51
2021/03/08 01:26:44;;;;;;;8.13;7.33;;;6.70;43.10;;;;;;5053651;28;20630;-53
2021/03/08 01:29:11;;;;;;;8.83;7.93;;;6.70;43.40;;;;;;5060839;28;20671;-53
2021/03/08 01:31:38;;;;;;;9.00;8.20;;;6.80;45.10;;;;;;5056809;28;20996;-52
2021/03/08 01:34:05;;;;;;;9.47;8.47;;;6.80;46.60;;;;;;5054252;28;21324;-53
2021/03/08 01:36:32;;;;;;;8.57;7.80;;;6.80;46.80;;;;;;5069487;28;20703;-52
2021/03/08 01:38:58;;;;;;;9.23;8.33;;;6.90;46.10;;;;;;5071319;28;20628;-52
2021/03/08 01:41:25;;;;;;;10.70;8.57;;;6.90;46.90;;;;;;5061431;28;20675;-53
2021/03/08 01:43:52;;;;;;;9.20;8.40;;;7.00;47.50;;;;;;5061283;28;20649;-53
2021/03/08 01:46:19;;;;;;;7.70;6.97;;;7.00;46.10;;;;;;5052537;28;20610;-53
2021/03/08 01:48:46;;;;;;;8.83;7.97;;;6.90;44.60;;;;;;5052967;28;20683;-53
2021/03/08 01:51:13;;;;;;;8.80;7.90;;;6.90;43.80;;;;;;5066701;28;20621;-53
2021/03/08 01:53:40;;;;;;;10.30;7.83;;;6.80;43.60;;;;;;5059008;28;20800;-52
2021/03/08 01:56:07;;;;;;;10.17;8.30;;;6.80;43.80;;;;;;5054507;28;20918;-52
2021/03/08 01:58:33;;;;;;;8.50;7.40;;;6.70;44.00;;;;;;5062425;28;21194;-51
2021/03/08 02:01:00;;;;;;;10.40;9.07;;;6.70;44.00;;;;;;5066813;28;20679;-52
2021/03/08 02:03:28;;;;;;;8.77;7.97;;;6.60;44.00;;;;;;5064458;28;21019;-53
2021/03/08 02:05:55;;;;;;;10.90;10.00;;;6.60;44.10;;;;;;5053889;28;20233;-52
2021/03/08 02:08:23;;;;;;;8.50;7.70;;;6.60;44.30;;;;;;5051588;28;20641;-53
2021/03/08 02:10:50;;;;;;;8.73;7.77;;;6.50;44.40;;;;;;5051879;28;21194;-52
2021/03/08 02:13:47;;;;;;;13.67;8.07;;;6.60;44.50;;;;;;5056514;28;20692;-51
2021/03/08 02:16:17;;;;;;;8.67;7.87;;;6.50;44.10;;;;;;5052471;28;20732;-48
2021/03/08 02:18:49;;;;;;;8.00;7.30;;;6.50;44.40;;;;;;5071038;28;20764;-52
2021/03/08 02:21:35;;;;;;;8.63;7.87;;;6.40;44.50;;;;;;5070244;28;20660;-52
2021/03/08 02:24:38;;;;;;;7.23;6.53;;;6.40;44.50;;;;;;5052066;28;20794;-52
2021/03/08 02:27:05;;;;;;;7.70;6.93;;;6.40;44.50;;;;;;5052413;28;21005;-51
2021/03/08 02:29:50;;;;;;;8.23;7.50;;;6.40;44.60;;;;;;5054643;28;20636;-52
2021/03/08 02:32:19;;;;;;;9.53;8.23;;;6.40;44.20;;;;;;5070916;28;20621;-49
2021/03/08 02:34:48;;;;;;;8.70;7.90;;;6.40;44.90;;;;;;5051219;28;21237;-52
2021/03/08 02:37:17;;;;;;;9.27;7.90;;;6.30;44.30;;;;;;5049901;28;20657;-52
2021/03/08 02:39:46;;;;;;;10.07;8.93;;;6.30;44.70;;;;;;5050681;28;20677;-51
2021/03/08 02:42:17;;;;;;;10.00;8.50;;;6.30;44.80;;;;;;5050890;28;20634;-50
2021/03/08 02:44:44;;;;;;;12.70;8.80;;;6.30;44.60;;;;;;5050492;28;20658;-51
2021/03/08 02:47:11;;;;;;;8.43;7.63;;;6.30;44.40;;;;;;5050593;28;21186;-50
2021/03/08 02:49:39;;;;;;;8.05;7.28;;;6.20;44.30;;;;;;5050399;28;20676;-52
2021/03/08 02:52:09;;;;;;;12.50;8.80;;;6.10;44.70;;;;;;5050584;28;20200;-52
2021/03/08 02:54:37;;;;;;;12.43;7.70;;;6.10;45.20;;;;;;5067137;28;20664;-52
2021/03/08 02:57:06;;;;;;;10.63;7.67;;;6.10;45.50;;;;;;5065878;28;20687;-52
2021/03/08 02:59:36;;;;;;;9.13;8.20;;;6.10;45.50;;;;;;5068956;28;20625;-52
2021/03/08 03:02:03;;;;;;;8.40;7.60;;;6.10;45.50;;;;;;5059401;28;20629;-50
2021/03/08 03:04:30;;;;;;;9.50;7.93;;;6.10;45.70;;;;;;5056957;28;20717;-52
2021/03/08 03:06:58;;;;;;;9.67;8.77;;;6.10;45.90;;;;;;5070371;28;20654;-52
2021/03/08 03:09:24;;;;;;;9.27;8.37;;;6.10;46.00;;;;;;5064044;28;21018;-52
2021/03/08 03:11:53;;;;;;;9.98;7.60;;;6.00;45.60;;;;;;5055008;28;20669;-51
2021/03/08 03:14:20;;;;;;;11.40;9.23;;;6.00;45.60;;;;;;5066191;28;20219;-52
2021/03/08 03:16:47;;;;;;;10.00;9.10;;;5.90;45.80;;;;;;5051159;28;20693;-52
2021/03/08 03:19:15;;;;;;;10.83;9.87;;;5.90;45.80;;;;;;5053465;28;20689;-51
2021/03/08 03:21:43;;;;;;;9.50;8.53;;;5.90;46.10;;;;;;5068539;28;21204;-51
2021/03/08 03:24:10;;;;;;;9.17;8.37;;;5.90;46.10;;;;;;5059342;28;20683;-52
2021/03/08 03:26:37;;;;;;;9.00;8.10;;;5.90;46.00;;;;;;5070218;28;20617;-52
2021/03/08 03:29:04;;;;;;;9.95;8.32;;;5.90;46.00;;;;;;5062833;28;20218;-51
2021/03/08 03:31:32;;;;;;;9.70;8.70;;;5.80;46.10;;;;;;5070148;28;20203;-52
2021/03/08 03:33:58;;;;;;;10.13;9.23;;;5.80;46.30;;;;;;5061173;28;20689;-50
2021/03/08 03:36:26;;;;;;;11.50;9.70;;;5.80;46.20;;;;;;5061543;28;20698;-51
2021/03/08 03:38:52;;;;;;;12.80;8.95;;;5.70;46.20;;;;;;5065659;28;20660;-52
2021/03/08 03:41:20;;;;;;;9.80;8.90;;;5.70;46.10;;;;;;5062267;28;20233;-51
2021/03/08 03:43:47;;;;;;;11.43;10.43;;;5.70;46.00;;;;;;5054243;28;20664;-52
2021/03/08 03:46:13;;;;;;;11.15;10.15;;;5.70;46.30;;;;;;5049475;28;20222;-50
2021/03/08 03:48:40;;;;;;;9.73;8.73;;;5.70;46.30;;;;;;5059406;28;20206;-49
2021/03/08 03:51:07;;;;;;;9.20;8.40;;;5.70;46.40;;;;;;5069427;28;20195;-51
2021/03/08 03:53:33;;;;;;;11.00;9.20;;;5.70;46.30;;;;;;5060032;28;20700;-51
2021/03/08 03:56:00;;;;;;;10.57;9.50;;;5.60;46.20;;;;;;5051008;28;20206;-51
2021/03/08 03:58:30;;;;;;;11.32;8.80;;;5.60;46.40;;;;;;5049617;28;20620;-51
2021/03/08 04:00:58;;;;;;;10.82;9.75;;;5.50;46.50;;;;;;5051913;28;20369;-52
2021/03/08 04:03:27;;;;;;;9.85;8.90;;;5.50;46.80;;;;;;5049547;28;20219;-51
2021/03/08 04:05:54;;;;;;;10.63;9.52;;;5.50;46.80;;;;;;5059474;28;20252;-49
2021/03/08 04:08:22;;;;;;;9.85;9.05;;;5.50;46.60;;;;;;5049836;28;20257;-49
2021/03/08 04:10:49;;;;;;;10.98;9.88;;;5.40;46.70;;;;;;5052217;28;20206;-50
2021/03/08 04:13:16;;;;;;;11.55;9.95;;;5.50;46.70;;;;;;5049776;28;20802;-50
2021/03/08 04:15:44;;;;;;;10.60;9.45;;;5.50;46.60;;;;;;5056300;28;20248;-50
2021/03/08 04:18:11;;;;;;;12.68;9.45;;;5.40;46.80;;;;;;5067201;28;20271;-50
2021/03/08 04:20:38;;;;;;;10.00;9.00;;;5.40;47.00;;;;;;5068978;28;20195;-49
2021/03/08 04:23:05;;;;;;;12.65;9.82;;;5.40;47.00;;;;;;5068170;28;21227;-50
2021/03/08 04:25:33;;;;;;;10.40;9.35;;;5.40;47.10;;;;;;5059325;28;20690;-50
2021/03/08 04:28:00;;;;;;;10.45;9.18;;;5.30;47.10;;;;;;5049520;28;20621;-50
2021/03/08 04:30:27;;;;;;;10.65;8.88;;;5.30;47.10;;;;;;5049764;28;20211;-50
2021/03/08 04:32:54;;;;;;;11.73;8.60;;;5.30;47.10;;;;;;5051165;28;20214;-49
2021/03/08 04:35:22;;;;;;;9.15;8.30;;;5.20;47.20;;;;;;5056954;28;20677;-49
2021/03/08 04:37:49;;;;;;;8.95;8.07;;;5.20;47.40;;;;;;5069602;28;20696;-50
2021/03/08 04:40:16;;;;;;;9.98;8.98;;;5.20;47.50;;;;;;5056383;28;20242;-50
2021/03/08 04:42:43;;;;;;;11.18;10.02;;;5.20;47.50;;;;;;5049352;28;20526;-50
2021/03/08 04:45:11;;;;;;;10.27;9.30;;;5.20;47.60;;;;;;5056506;28;20198;-50
2021/03/08 04:47:37;;;;;;;11.18;9.10;;;5.20;47.90;;;;;;5069079;28;20317;-51
2021/03/08 04:50:06;;;;;;;15.15;9.95;;;5.10;47.70;;;;;;5066003;28;20566;-50
2021/03/08 04:52:33;;;;;;;11.07;10.07;;;5.20;47.90;;;;;;5053446;28;20276;-51
2021/03/08 04:55:00;;;;;;;16.10;13.52;;;5.10;47.80;;;;;;5059624;28;20229;-51
2021/03/08 04:57:27;;;;;;;30.55;22.70;;;5.10;48.30;;;;;;5050773;28;20299;-51
2021/03/08 04:59:53;;;;;;;28.60;18.63;;;5.20;47.70;;;;;;5053512;28;20207;-51
2021/03/08 05:02:21;;;;;;;31.55;19.98;;;5.10;47.50;;;;;;5070606;28;20685;-51
2021/03/08 05:04:49;;;;;;;31.20;20.25;;;5.10;47.80;;;;;;5065575;28;20218;-51
2021/03/08 05:07:19;;;;;;;27.83;20.80;;;5.10;48.00;;;;;;5058034;28;20198;-52
2021/03/08 05:09:46;;;;;;;29.88;22.17;;;5.00;47.90;;;;;;5073357;28;20249;-50
2021/03/08 05:12:12;;;;;;;27.08;20.88;;;5.00;48.20;;;;;;5062974;28;20260;-51
2021/03/08 05:14:39;;;;;;;28.73;21.30;;;5.00;48.40;;;;;;5073026;28;20322;-50
2021/03/08 05:17:06;;;;;;;21.10;17.67;;;5.00;48.30;;;;;;5072730;28;20639;-51
2021/03/08 05:19:34;;;;;;;22.55;16.92;;;5.00;48.60;;;;;;5071412;28;20246;-51
2021/03/08 05:22:00;;;;;;;19.33;16.65;;;5.00;48.60;;;;;;5066745;28;20189;-50
2021/03/08 05:24:28;;;;;;;20.30;16.70;;;5.10;48.60;;;;;;5053075;28;20284;-50
2021/03/08 05:26:55;;;;;;;23.35;16.92;;;5.10;48.50;;;;;;5053582;28;20246;-51
2021/03/08 05:29:22;;;;;;;18.10;13.82;;;5.00;48.50;;;;;;5052741;28;20580;-51
2021/03/08 05:31:48;;;;;;;20.75;16.52;;;5.00;48.60;;;;;;5052659;28;20211;-51
2021/03/08 05:34:16;;;;;;;17.90;15.07;;;5.00;48.60;;;;;;5053093;28;20283;-50
2021/03/08 05:36:45;;;;;;;18.70;14.07;;;5.00;48.70;;;;;;5069940;28;20271;-51
2021/03/08 05:39:11;;;;;;;17.90;15.63;;;5.00;48.80;;;;;;5066122;28;20261;-51
2021/03/08 05:41:45;;;;;;;18.42;14.50;;;5.00;48.70;;;;;;5071179;28;20203;-52
2021/03/08 05:44:12;;;;;;;17.92;14.20;;;5.00;48.60;;;;;;5062836;28;20219;-51
2021/03/08 05:46:50;;;;;;;17.15;13.23;;;4.90;48.60;;;;;;5071286;28;20202;-51
2021/03/08 05:49:35;;;;;;;16.67;13.38;;;5.00;49.10;;;;;;5065910;28;20194;-51
2021/03/08 05:52:21;;;;;;;21.85;14.82;;;4.90;49.00;;;;;;5052381;28;20753;-51
2021/03/08 05:55:23;;;;;;;13.93;11.75;;;4.90;49.20;;;;;;5052364;28;20219;-51
2021/03/08 05:57:59;;;;;;;18.30;11.75;;;5.00;49.40;;;;;;5070252;28;20217;-50
2021/03/08 06:00:40;;;;;;;11.88;10.68;;;4.90;49.10;;;;;;5072002;28;20639;-51
2021/03/08 06:03:09;;;;;;;12.52;11.38;;;4.90;48.90;;;;;;5060842;28;20211;-52
2021/03/08 06:06:23;;;;;;;11.30;10.10;;;5.00;48.80;;;;;;5053507;28;20268;-51
2021/03/08 06:09:22;;;;;;;14.50;10.80;;;5.00;48.60;;;;;;5055097;28;20239;-50
2021/03/08 06:11:53;;;;;;;14.20;10.68;;;5.00;48.40;;;;;;5062832;28;20201;-51
2021/03/08 06:14:25;;;;;;;14.40;11.85;;;5.00;48.30;;;;;;5067282;28;20838;-52
2021/03/08 06:16:52;;;;;;;16.45;11.50;;;5.00;48.40;;;;;;5070886;28;20676;-51
2021/03/08 06:19:19;;;;;;;11.50;10.02;;;4.90;48.60;;;;;;5062007;28;20230;-52
2021/03/08 06:21:45;;;;;;;15.45;11.18;;;4.90;49.00;;;;;;5061859;28;20271;-52
2021/03/08 06:24:12;;;;;;;14.85;11.32;;;4.90;49.00;;;;;;5062758;28;20221;-52
2021/03/08 06:26:39;;;;;;;12.75;10.85;;;5.00;49.00;;;;;;5065284;28;20243;-51
2021/03/08 06:29:07;;;;;;;12.75;11.55;;;4.90;49.60;;;;;;5067976;28;20251;-52
2021/03/08 06:31:35;;;;;;;10.93;10.02;;;4.90;49.30;;;;;;5057934;28;20256;-52
2021/03/08 06:34:02;;;;;;;13.30;12.15;;;4.90;49.40;;;;;;5069567;28;20687;-52
2021/03/08 06:36:29;;;;;;;12.30;11.07;;;5.00;49.50;;;;;;5063633;28;20660;-53
2021/03/08 06:38:56;;;;;;;12.82;11.60;;;5.10;49.40;;;;;;5060357;28;20230;-53
2021/03/08 06:41:22;;;;;;;13.80;11.30;;;5.10;49.30;;;;;;5063269;28;20560;-51
2021/03/08 06:43:49;;;;;;;13.97;11.83;;;5.20;49.60;;;;;;5064035;28;20211;-52
2021/03/08 06:46:16;;;;;;;11.40;10.20;;;5.30;49.10;;;;;;5063063;28;20637;-54
2021/03/08 06:48:44;;;;;;;13.20;11.13;;;5.30;49.20;;;;;;5053781;28;20196;-53
2021/03/08 06:51:11;;;;;;;13.90;11.40;;;5.50;49.10;;;;;;5064587;28;20985;-52
2021/03/08 06:53:38;;;;;;;15.33;13.00;;;5.50;48.90;;;;;;5054010;28;21395;-51
2021/03/08 06:56:18;;;;;;;12.60;11.50;;;5.60;48.70;;;;;;5070405;28;20617;-52
2021/03/08 06:58:45;;;;;;;15.63;11.93;;;5.60;48.40;;;;;;5062223;28;20664;-52
2021/03/08 07:01:28;;;;;;;13.70;9.83;;;5.60;48.40;;;;;;5063309;28;20703;-52
2021/03/08 07:03:56;;;;;;;12.53;9.97;;;5.60;48.80;;;;;;5066820;28;20697;-52
2021/03/08 07:06:23;;;;;;;12.60;10.60;;;5.70;48.80;;;;;;5069767;28;20694;-51
2021/03/08 07:08:49;;;;;;;15.90;11.47;;;5.70;48.80;;;;;;5066857;28;20690;-52
2021/03/08 07:11:18;;;;;;;13.73;12.30;;;5.80;49.10;;;;;;5061233;28;21157;-52
2021/03/08 07:13:45;;;;;;;11.60;10.60;;;5.80;48.80;;;;;;5068420;28;20695;-52
2021/03/08 07:16:11;;;;;;;11.73;10.57;;;6.00;49.40;;;;;;5070367;28;20687;-51
2021/03/08 07:18:38;;;;;;;11.50;10.30;;;6.30;49.50;;;;;;5070042;28;20693;-52
2021/03/08 07:21:19;;;;;;;10.00;8.97;;;6.60;49.20;;;;;;5069424;28;20767;-52
2021/03/08 07:23:46;;;;;;;10.40;9.50;;;6.90;48.70;;;;;;5070091;28;20711;-52
2021/03/08 07:26:14;;;;;;;10.43;9.40;;;7.20;48.40;;;;;;5070266;28;20631;-51
2021/03/08 07:28:41;;;;;;;10.30;9.40;;;7.50;47.00;;;;;;5069476;28;20624;-51
2021/03/08 07:31:08;;;;;;;9.87;8.90;;;7.80;46.30;;;;;;5069387;28;20685;-51
2021/03/08 07:33:35;;;;;;;11.83;10.60;;;8.00;45.70;;;;;;5050507;28;20780;-51
2021/03/08 07:36:13;;;;;;;10.67;9.10;;;8.20;45.00;;;;;;5051144;28;20703;-53
2021/03/08 07:38:46;;;;;;;10.57;9.67;;;8.40;44.90;;;;;;5052227;28;20850;-51
2021/03/08 07:41:13;;;;;;;9.30;8.50;;;8.50;43.90;;;;;;5050463;28;20695;-52
2021/03/08 07:43:46;;;;;;;10.90;9.90;;;8.50;43.60;;;;;;5049227;28;20717;-53
2021/03/08 07:46:26;;;;;;;11.00;10.00;;;8.60;43.50;;;;;;5053182;28;20656;-52
2021/03/08 07:48:53;;;;;;;8.87;8.00;;;8.80;43.40;;;;;;5050485;28;20621;-51
2021/03/08 07:51:19;;;;;;;9.87;8.87;;;8.90;43.10;;;;;;5056716;28;21024;-52
2021/03/08 07:53:47;;;;;;;9.57;8.47;;;9.10;42.60;;;;;;5058296;28;21041;-52
2021/03/08 07:56:14;;;;;;;10.50;8.73;;;9.20;42.20;;;;;;5060443;28;20690;-51
2021/03/08 07:58:41;;;;;;;10.10;8.33;;;9.10;41.80;;;;;;5070184;28;20726;-52
2021/03/08 08:01:08;;;;;;;10.87;9.77;;;9.00;42.30;;;;;;5069762;28;20629;-52
2021/03/08 08:03:35;;;;;;;9.73;8.83;;;9.00;42.00;;;;;;5069999;28;20752;-50
2021/03/08 08:06:03;;;;;;;9.40;8.63;;;9.00;42.10;;;;;;5058450;28;20688;-51
2021/03/08 08:08:31;;;;;;;10.00;9.00;;;9.00;42.10;;;;;;5052633;28;20626;-51
2021/03/08 08:10:59;;;;;;;11.83;9.83;;;9.00;41.80;;;;;;5069637;28;20644;-50
2021/03/08 08:13:35;;;;;;;12.43;9.70;;;9.10;41.80;;;;;;5069710;28;21128;-50
2021/03/08 08:16:06;;;;;;;11.17;10.00;;;9.10;41.80;;;;;;5069169;28;20977;-52
2021/03/08 08:18:33;;;;;;;10.00;9.07;;;9.10;41.90;;;;;;5064214;28;20713;-54
2021/03/08 08:20:59;;;;;;;10.10;8.93;;;9.20;41.60;;;;;;5050159;28;21001;-52
2021/03/08 08:23:28;;;;;;;9.73;8.73;;;9.30;41.50;;;;;;5048286;28;20669;-53
2021/03/08 08:25:55;;;;;;;11.03;10.00;;;9.50;41.80;;;;;;5049661;28;20652;-53
2021/03/08 08:28:23;;;;;;;11.23;9.80;;;9.80;41.20;;;;;;5049037;28;21183;-53
2021/03/08 08:30:57;;;;;;;10.70;9.70;;;10.10;39.80;;;;;;5049330;28;20692;-52
2021/03/08 08:33:28;;;;;;;9.80;8.80;;;10.30;39.40;;;;;;5049031;28;20653;-53
2021/03/08 08:36:08;;;;;;;10.87;9.17;;;10.40;38.90;;;;;;5048659;28;20622;-54
2021/03/08 08:38:34;;;;;;;11.47;9.37;;;10.50;38.80;;;;;;5049017;28;20704;-52
2021/03/08 08:41:21;;;;;;;9.47;8.57;;;10.60;38.80;;;;;;5048684;28;20759;-53
2021/03/08 08:44:18;;;;;;;10.30;9.40;;;10.70;38.60;;;;;;5047149;28;21234;-54
2021/03/08 08:46:45;;;;;;;9.17;8.30;;;10.80;38.60;;;;;;5049241;28;20638;-52
2021/03/08 08:49:13;;;;;;;10.87;9.87;;;10.90;38.30;;;;;;5049813;28;20619;-54
2021/03/08 08:51:50;;;;;;;15.83;9.40;;;10.90;38.20;;;;;;5056174;28;20692;-53
2021/03/08 08:54:54;;;;;;;11.20;10.10;;;10.90;38.10;;;;;;5069006;28;20711;-53
2021/03/08 08:57:20;;;;;;;10.53;9.37;;;11.00;38.20;;;;;;5063531;28;21134;-51
2021/03/08 09:00:20;;;;;;;10.73;9.73;;;10.80;37.80;;;;;;5057426;28;20761;-52
2021/03/08 09:02:47;;;;;;;10.00;9.10;;;10.80;38.30;;;;;;5053918;28;20694;-51
2021/03/08 09:05:41;;;;;;;14.87;9.13;;;10.80;38.40;;;;;;5070439;28;20667;-52
2021/03/08 09:08:32;;;;;;;10.17;9.17;;;10.90;38.20;;;;;;5070151;28;20679;-52
2021/03/08 09:10:59;;;;;;;10.37;9.37;;;11.00;38.40;;;;;;5063463;28;20637;-53
2021/03/08 09:13:27;;;;;;;12.70;9.23;;;11.00;38.00;;;;;;5050207;28;20643;-53
2021/03/08 09:16:20;;;;;;;10.40;9.30;;;11.10;38.10;;;;;;5050378;28;20671;-53
2021/03/08 09:18:47;;;;;;;11.40;9.40;;;11.10;38.00;;;;;;5049307;28;20666;-52
2021/03/08 09:21:21;;;;;;;9.97;9.07;;;11.10;38.00;;;;;;5050239;28;20622;-52
2021/03/08 09:23:48;;;;;;;10.83;9.70;;;11.10;38.10;;;;;;5049814;28;20692;-52
2021/03/08 09:26:15;;;;;;;11.67;10.33;;;11.10;38.10;;;;;;5050402;28;20633;-51
2021/03/08 09:28:50;;;;;;;11.90;10.70;;;11.00;38.20;;;;;;5050029;28;20622;-52
2021/03/08 09:31:22;;;;;;;10.57;9.47;;;11.00;38.30;;;;;;5050097;28;20683;-53
2021/03/08 09:33:50;;;;;;;11.33;10.30;;;11.00;38.20;;;;;;5050286;28;21462;-52
2021/03/08 09:36:17;;;;;;;10.40;9.47;;;11.00;38.30;;;;;;5049791;28;20622;-53
2021/03/08 09:38:44;;;;;;;12.10;10.90;;;11.00;38.10;;;;;;5053688;28;20704;-54
2021/03/08 09:41:11;;;;;;;11.83;10.70;;;11.10;38.10;;;;;;5049601;28;20622;-51
2021/03/08 09:43:38;;;;;;;10.80;9.70;;;11.30;38.20;;;;;;5050485;28;20681;-51
2021/03/08 09:46:06;;;;;;;11.53;10.30;;;11.60;38.30;;;;;;5053380;28;20634;-51
2021/03/08 09:48:35;;;;;;;10.77;9.70;;;11.80;37.80;;;;;;5052183;28;20627;-51
2021/03/08 09:51:03;;;;;;;10.87;9.87;;;11.90;37.80;;;;;;5054115;28;20667;-51
2021/03/08 09:53:32;;;;;;;10.83;9.73;;;12.00;37.40;;;;;;5053516;28;21058;-52
2021/03/08 09:56:05;;;;;;;11.20;10.10;;;12.10;37.20;;;;;;5053981;28;20641;-51
2021/03/08 09:58:32;;;;;;;11.50;10.40;;;12.10;38.00;;;;;;5053690;28;20636;-53
2021/03/08 10:00:59;;;;;;;10.47;9.37;;;12.20;38.00;;;;;;5062945;28;20652;-53
2021/03/08 10:03:26;;;;;;;11.97;10.77;;;12.30;38.10;;;;;;5066590;28;20672;-53
2021/03/08 10:05:54;;;;;;;12.70;10.17;;;12.40;37.60;;;;;;5060963;28;20624;-53
2021/03/08 10:08:28;;;;;;;13.77;12.37;;;12.60;37.00;;;;;;5073456;28;20681;-54
2021/03/08 10:10:55;;;;;;;11.60;10.40;;;12.60;36.90;;;;;;5060811;28;20629;-55
2021/03/08 10:13:23;;;;;;;11.63;10.43;;;12.80;36.70;;;;;;5052933;28;20652;-52
2021/03/08 10:15:51;;;;;;;11.20;10.20;;;12.80;36.90;;;;;;5053137;28;20694;-52
2021/03/08 10:18:19;;;;;;;11.70;10.50;;;12.70;36.60;;;;;;5052748;28;20695;-53
2021/03/08 10:20:50;;;;;;;13.67;10.93;;;12.60;36.70;;;;;;5052898;28;20613;-55
2021/03/08 10:23:23;;;;;;;12.70;11.20;;;12.60;37.10;;;;;;5052779;28;20772;-52
2021/03/08 10:25:50;;;;;;;11.20;10.23;;;12.70;37.30;;;;;;5054448;28;20626;-52
2021/03/08 10:28:17;;;;;;;10.77;9.77;;;12.80;37.20;;;;;;5056657;28;20683;-52
2021/03/08 10:30:44;;;;;;;11.47;9.10;;;12.90;37.00;;;;;;5065896;28;20617;-51
2021/03/08 10:33:13;;;;;;;11.93;10.10;;;12.90;36.80;;;;;;5052757;28;20960;-53
2021/03/08 10:35:40;;;;;;;12.80;11.60;;;13.00;37.00;;;;;;5061940;28;20659;-51
2021/03/08 10:38:07;;;;;;;12.50;11.20;;;13.20;36.90;;;;;;5072553;28;20629;-51
2021/03/08 10:40:35;;;;;;;12.77;11.40;;;13.30;37.00;;;;;;5063759;28;21219;-51
2021/03/08 10:43:02;;;;;;;10.37;9.37;;;13.40;37.00;;;;;;5056549;28;20692;-51
2021/03/08 10:45:29;;;;;;;10.77;9.67;;;13.40;36.80;;;;;;5072575;28;20675;-51
2021/03/08 10:48:06;;;;;;;12.17;11.07;;;13.50;36.60;;;;;;5064944;28;20625;-51
2021/03/08 10:50:44;;;;;;;13.07;11.63;;;13.50;36.70;;;;;;5052536;28;20614;-51
2021/03/08 10:53:11;;;;;;;12.63;11.33;;;13.50;36.40;;;;;;5052658;28;20707;-51
2021/03/08 10:55:39;;;;;;;13.00;11.43;;;13.40;35.90;;;;;;5061117;28;20613;-51
2021/03/08 10:58:06;;;;;;;15.90;10.50;;;13.50;36.20;;;;;;5063154;28;20660;-51
2021/03/08 11:00:33;;;;;;;14.27;11.80;;;13.50;36.10;;;;;;5063023;28;20653;-51
2021/03/08 11:03:00;;;;;;;11.50;10.37;;;13.70;36.20;;;;;;5071925;28;20633;-51
2021/03/08 11:05:27;;;;;;;13.50;10.73;;;13.80;35.70;;;;;;5072032;28;20625;-51
2021/03/08 11:07:54;;;;;;;12.93;11.70;;;13.90;35.50;;;;;;5071523;28;21039;-51
2021/03/08 11:10:43;;;;;;;13.60;12.30;;;14.00;35.30;;;;;;5069576;28;21267;-51
2021/03/08 11:13:10;;;;;;;13.07;11.73;;;14.10;35.40;;;;;;5061287;28;20661;-52
2021/03/08 11:15:37;;;;;;;11.33;10.30;;;14.20;35.30;;;;;;5051363;28;20970;-52
2021/03/08 11:18:05;;;;;;;11.00;9.90;;;14.30;35.10;;;;;;5052708;28;20893;-52
2021/03/08 11:20:32;;;;;;;12.20;10.90;;;14.40;34.90;;;;;;5052794;28;20667;-53
2021/03/08 11:23:02;;;;;;;11.60;10.47;;;14.50;34.40;;;;;;5058736;28;20621;-53
2021/03/08 11:25:34;;;;;;;10.73;9.83;;;14.50;34.20;;;;;;5071649;28;20725;-54
2021/03/08 11:28:07;;;;;;;12.40;11.37;;;14.60;34.30;;;;;;5060148;28;20675;-54
2021/03/08 11:30:34;;;;;;;12.23;11.03;;;14.70;33.80;;;;;;5050135;28;20633;-52
2021/03/08 11:33:01;;;;;;;12.30;10.87;;;14.80;33.70;;;;;;5050960;28;20630;-51
2021/03/08 11:35:29;;;;;;;13.77;11.40;;;14.80;33.60;;;;;;5051361;28;20702;-51
2021/03/08 11:37:58;;;;;;;12.63;11.17;;;14.80;33.80;;;;;;5070116;28;20648;-53
2021/03/08 11:40:26;;;;;;;11.63;10.43;;;14.70;33.60;;;;;;5071558;28;20661;-53
2021/03/08 11:42:53;;;;;;;12.60;11.40;;;14.60;33.70;;;;;;5057825;28;21017;-52
2021/03/08 11:45:20;;;;;;;12.67;11.47;;;14.60;34.20;;;;;;5051797;28;21228;-52
2021/03/08 11:47:51;;;;;;;12.00;10.97;;;14.60;34.00;;;;;;5051096;28;20630;-52
2021/03/08 11:50:18;;;;;;;13.20;11.00;;;14.70;34.10;;;;;;5051590;28;20626;-53
2021/03/08 11:52:44;;;;;;;11.70;10.70;;;14.70;33.70;;;;;;5051492;28;20634;-53
2021/03/08 11:55:12;;;;;;;11.50;10.03;;;14.80;33.70;;;;;;5051131;28;20686;-53
2021/03/08 11:57:42;;;;;;;12.77;11.47;;;14.90;33.80;;;;;;5050426;28;20622;-51
2021/03/08 12:00:10;;;;;;;14.70;13.40;;;15.00;33.50;;;;;;5049098;28;20658;-53
2021/03/08 12:02:38;;;;;;;12.77;10.40;;;15.10;34.10;;;;;;5050837;28;20633;-53
2021/03/08 12:05:06;;;;;;;12.77;11.40;;;15.20;34.00;;;;;;5061412;28;20718;-53
2021/03/08 12:07:34;;;;;;;12.37;10.80;;;15.30;33.50;;;;;;5070461;28;20637;-51
2021/03/08 12:10:00;;;;;;;11.47;10.47;;;15.40;33.20;;;;;;5068060;28;20660;-51
2021/03/08 12:12:27;;;;;;;13.67;11.83;;;15.40;33.00;;;;;;5050245;28;20684;-51
2021/03/08 12:14:54;;;;;;;13.10;11.40;;;15.40;33.10;;;;;;5050249;28;20658;-52
2021/03/08 12:17:21;;;;;;;11.63;10.43;;;15.40;32.80;;;;;;5066312;28;21033;-52
2021/03/08 12:19:49;;;;;;;12.50;11.20;;;15.50;33.00;;;;;;5069978;28;20653;-52
2021/03/08 12:22:16;;;;;;;12.63;11.57;;;15.50;32.60;;;;;;5062149;28;21025;-51
2021/03/08 12:24:43;;;;;;;9.93;8.97;;;15.50;32.40;;;;;;5050839;28;21056;-52
2021/03/08 12:27:10;;;;;;;12.27;10.97;;;15.50;32.60;;;;;;5050399;28;21127;-52
2021/03/08 12:29:44;;;;;;;12.47;10.87;;;15.60;32.80;;;;;;5057037;28;20746;-55
2021/03/08 12:32:11;;;;;;;11.27;10.17;;;15.50;32.30;;;;;;5070772;28;20635;-53
2021/03/08 12:34:37;;;;;;;12.00;10.90;;;15.40;32.30;;;;;;5071202;28;20661;-51
2021/03/08 12:37:05;;;;;;;11.70;10.30;;;15.40;32.70;;;;;;5070188;28;20632;-51
2021/03/08 12:39:32;;;;;;;12.00;10.80;;;15.40;32.80;;;;;;5070132;28;20645;-52
2021/03/08 12:41:59;;;;;;;15.13;10.30;;;15.40;32.60;;;;;;5056113;28;20634;-54
2021/03/08 12:44:26;;;;;;;12.93;10.60;;;15.30;32.60;;;;;;5050951;28;20661;-53
2021/03/08 12:46:52;;;;;;;18.03;11.70;;;15.20;32.60;;;;;;5053334;28;20626;-52
2021/03/08 12:49:19;;;;;;;11.37;10.13;;;15.10;32.80;;;;;;5070021;28;20625;-53
2021/03/08 12:51:46;;;;;;;12.50;10.50;;;15.10;33.10;;;;;;5070621;28;20625;-54
2021/03/08 12:54:14;;;;;;;17.30;11.27;;;15.10;33.20;;;;;;5070177;28;20714;-53